< Cyclone 202105 2021 Season Cyclone 202107 >
Cyclone 202106 (noname)
General InformationTrack Information on Google MapsDetailed Wind InformationList of All Images || ResourceGoogle EarthGE AnimationAtom FeedGeoJSON
Detalied Best Track (Time Zone = UTC)
Year Month Day Hour Lat. Long. Pressure (hPa) Wind (kt) Class Image Chart
2021 1 5 00 -9.6 101.0 1006 15 2 Image --
2021 1 5 06 -9.5 100.5 1004 15 2 Image --
2021 1 5 12 -9.2 99.8 1004 15 2 Image --
2021 1 5 18 -9.5 100.1 1004 15 2 Image --
2021 1 6 00 -9.8 100.3 1004 15 2 Image --
2021 1 6 06 -10.0 100.7 1004 15 2 Image --
2021 1 6 12 -10.2 100.8 1004 15 2 Image --
2021 1 6 18 -10.3 101.0 1004 20 2 Image --
2021 1 7 00 -10.4 101.2 1002 25 2 Image --
2021 1 7 06 -10.2 101.5 1003 25 2 Image --
2021 1 7 12 -11.2 101.6 1002 25 2 Image --
2021 1 7 18 -11.8 101.8 1001 25 2 Image --
2021 1 8 00 -12.1 102.0 1001 25 2 Image --
2021 1 8 06 -12.4 102.1 1001 25 2 Image --
2021 1 8 12 -13.0 102.5 1001 25 2 Image --
2021 1 8 18 -13.6 102.5 1001 25 2 Image --
2021 1 9 00 -14.0 101.3 1001 25 2 Image --
2021 1 9 06 -14.8 100.3 1001 25 2 Image --
2021 1 9 12 -15.3 99.2 1001 25 2 Image --
2021 1 9 18 -15.7 98.1 999 35 3 Image --
2021 1 10 00 -16.7 97.0 1000 35 3 Image --
2021 1 10 06 -17.1 95.2 1000 35 3 Image --
2021 1 10 12 -17.4 93.0 1003 30 2 Image --
< Cyclone 202105 2021 Season Cyclone 202107 >

Help